Time;durP1;ratioP1;P1;durP2;ratioP2;P2;SDS_P1;SDS_P2;PMS_P1;PMS_P2;Temp;Humidity;BMP_temperature;BMP_pressure;BME280_temperature;BME280_humidity;BME280_pressure;Samples;Min_cycle;Max_cycle;Signal;HPM_P1;HPM_P2
2022/06/19 00:00:54;;;;;;;13.25;6.88;;;;;;;24.28;50.45;100584.00;7395845;19;20497;-67
2022/06/19 00:03:26;;;;;;;11.88;6.72;;;;;;;24.21;50.66;100581.81;7395670;19;20015;-67
2022/06/19 00:05:55;;;;;;;12.57;7.38;;;;;;;24.17;51.03;100577.66;7398387;19;20021;-67
2022/06/19 00:08:24;;;;;;;10.80;7.10;;;;;;;24.12;50.81;100582.56;7397124;19;20022;-67
2022/06/19 00:10:52;;;;;;;11.40;7.57;;;;;;;24.09;51.26;100585.50;7396230;19;20022;-66
2022/06/19 00:13:23;;;;;;;9.43;7.05;;;;;;;24.04;51.07;100593.06;7397432;19;20028;-67
2022/06/19 00:15:52;;;;;;;16.52;7.88;;;;;;;23.97;51.68;100592.69;7395507;19;20026;-66
2022/06/19 00:18:21;;;;;;;18.92;7.60;;;;;;;23.90;51.65;100584.25;7396221;19;20043;-66
2022/06/19 00:20:49;;;;;;;13.27;8.05;;;;;;;23.84;52.22;100579.41;7396155;19;20048;-66
2022/06/19 00:23:18;;;;;;;10.95;7.70;;;;;;;23.78;52.32;100577.22;7395395;19;20019;-66
2022/06/19 00:25:47;;;;;;;12.73;6.85;;;;;;;23.75;52.64;100564.09;7397180;19;20014;-66
2022/06/19 00:28:16;;;;;;;8.90;6.43;;;;;;;23.69;52.81;100565.41;7394617;19;20027;-67
2022/06/19 00:30:47;;;;;;;14.05;7.78;;;;;;;23.66;52.59;100565.66;7395309;19;20477;-67
2022/06/19 00:33:16;;;;;;;13.25;7.78;;;;;;;23.62;53.02;100556.19;7395507;19;20025;-66
2022/06/19 00:35:44;;;;;;;13.05;7.32;;;;;;;23.57;53.42;100550.34;7396393;19;20435;-67
2022/06/19 00:38:13;;;;;;;11.77;7.15;;;;;;;23.53;53.28;100551.53;7397667;19;20028;-66
2022/06/19 00:40:41;;;;;;;13.00;7.20;;;;;;;23.48;53.52;100535.00;7395292;19;20022;-67
2022/06/19 00:43:10;;;;;;;11.23;7.18;;;;;;;23.45;53.72;100530.75;7396534;19;20022;-67
2022/06/19 00:45:41;;;;;;;11.23;7.85;;;;;;;23.41;53.91;100524.78;7394922;19;20094;-67
2022/06/19 00:48:16;;;;;;;12.52;7.20;;;;;;;23.38;54.30;100518.81;7394433;19;20074;-67
2022/06/19 00:50:47;;;;;;;15.60;7.95;;;;;;;23.34;54.03;100506.66;7394980;19;20037;-67
2022/06/19 00:53:19;;;;;;;11.88;6.97;;;;;;;23.30;54.28;100498.00;7396919;19;20022;-67
2022/06/19 00:55:50;;;;;;;12.23;7.68;;;;;;;23.26;54.46;100494.72;7395832;19;20022;-66
2022/06/19 00:58:24;;;;;;;9.63;8.30;;;;;;;23.22;54.67;100493.28;7393697;19;20018;-67
2022/06/19 01:00:57;;;;;;;12.18;7.82;;;;;;;23.18;55.13;100494.50;7393967;19;20026;-66
2022/06/19 01:03:32;;;;;;;13.63;7.57;;;;;;;23.16;55.13;100488.41;7396150;19;20039;-67
2022/06/19 01:06:01;;;;;;;10.75;7.78;;;;;;;23.13;55.46;100488.63;7393898;19;20019;-67
2022/06/19 01:08:29;;;;;;;12.65;7.80;;;;;;;23.10;55.24;100483.50;7393948;19;20020;-67
2022/06/19 01:10:58;;;;;;;15.65;8.63;;;;;;;23.08;55.87;100474.75;7395250;19;20026;-68
2022/06/19 01:13:30;;;;;;;11.27;7.47;;;;;;;23.03;55.89;100472.44;7396734;19;20028;-67
2022/06/19 01:16:00;;;;;;;10.35;7.60;;;;;;;23.00;55.97;100455.78;7396441;19;20036;-68
2022/06/19 01:18:34;;;;;;;10.60;8.13;;;;;;;22.98;55.78;100439.00;7396042;19;20018;-67
2022/06/19 01:21:12;;;;;;;12.60;8.95;;;;;;;22.95;55.90;100442.78;7394681;19;20431;-67
2022/06/19 01:23:52;;;;;;;13.38;7.38;;;;;;;22.90;56.32;100445.81;7396202;19;20014;-65
2022/06/19 01:26:25;;;;;;;13.45;7.75;;;;;;;22.85;56.37;100448.00;7395191;19;20527;-67
2022/06/19 01:28:56;;;;;;;12.93;8.25;;;;;;;22.82;56.88;100452.72;7393882;19;20006;-67
2022/06/19 01:31:29;;;;;;;12.43;8.27;;;;;;;22.78;56.76;100430.72;7393786;19;20042;-67
2022/06/19 01:34:02;;;;;;;11.15;8.18;;;;;;;22.76;57.16;100419.28;7395607;19;20074;-67
2022/06/19 01:36:33;;;;;;;9.85;7.78;;;;;;;22.76;56.92;100408.59;7395856;19;20022;-67
2022/06/19 01:39:03;;;;;;;10.23;7.90;;;;;;;22.73;57.28;100400.81;7395543;19;20022;-67
2022/06/19 01:41:36;;;;;;;13.20;8.43;;;;;;;22.69;57.68;100391.34;7393039;19;20019;-67
2022/06/19 01:44:04;;;;;;;12.43;9.18;;;;;;;22.66;57.22;100379.06;7393558;19;20386;-67
2022/06/19 01:46:33;;;;;;;10.23;9.27;;;;;;;22.60;57.53;100372.34;7394906;19;20014;-67
2022/06/19 01:49:01;;;;;;;9.40;8.52;;;;;;;22.61;57.68;100378.56;7394292;19;20022;-66
2022/06/19 01:51:30;;;;;;;11.90;8.77;;;;;;;22.59;57.51;100377.84;7393039;19;20019;-66
2022/06/19 01:54:03;;;;;;;14.32;9.23;;;;;;;22.53;58.02;100360.47;7394682;19;20489;-67
2022/06/19 01:56:35;;;;;;;17.63;9.77;;;;;;;22.54;57.92;100364.81;7393552;19;20014;-67
2022/06/19 01:59:07;;;;;;;13.18;9.68;;;;;;;22.53;57.74;100360.47;7393168;19;20027;-66
2022/06/19 02:01:38;;;;;;;11.98;8.95;;;;;;;22.52;57.68;100360.56;7392654;19;20362;-67
2022/06/19 02:04:09;;;;;;;12.57;8.90;;;;;;;22.50;57.88;100362.53;7394426;19;20039;-67
2022/06/19 02:06:43;;;;;;;12.77;9.18;;;;;;;22.48;57.88;100357.28;7394414;19;20425;-67
2022/06/19 02:09:12;;;;;;;10.02;9.02;;;;;;;22.47;57.94;100350.25;7394103;19;20039;-66
2022/06/19 02:11:44;;;;;;;11.20;8.98;;;;;;;22.44;58.35;100343.31;7394422;19;20035;-66
2022/06/19 02:14:15;;;;;;;13.23;9.02;;;;;;;22.42;58.47;100349.75;7392826;19;20027;-66
2022/06/19 02:16:47;;;;;;;11.10;8.63;;;;;;;22.41;58.54;100356.06;7395197;19;20018;-67
2022/06/19 02:19:16;;;;;;;11.95;9.52;;;;;;;22.37;58.13;100357.25;7397795;19;20032;-67
2022/06/19 02:21:47;;;;;;;11.02;8.27;;;;;;;22.36;58.28;100355.56;7398839;19;20015;-66
2022/06/19 02:24:19;;;;;;;15.02;8.98;;;;;;;22.32;58.17;100354.06;7401547;19;20031;-66
2022/06/19 02:26:52;;;;;;;11.18;8.45;;;;;;;22.29;58.55;100358.69;7401353;19;20408;-67
2022/06/19 02:29:22;;;;;;;10.67;8.27;;;;;;;22.28;58.61;100361.50;7398051;19;20498;-67
2022/06/19 02:31:53;;;;;;;15.13;9.07;;;;;;;22.25;58.39;100356.38;7400772;19;21057;-67
2022/06/19 02:34:27;;;;;;;9.23;8.23;;;;;;;22.23;58.89;100351.16;7401557;19;20014;-67
2022/06/19 02:36:57;;;;;;;;;;;;;;;22.22;58.30;100346.78;7402575;19;20019;-67
2022/06/19 02:39:50;;;;;;;16.75;8.98;;;;;;;22.20;58.75;100346.03;7400631;19;19914;-67
2022/06/19 02:42:47;;;;;;;12.75;9.40;;;;;;;22.18;58.55;100334.63;7398548;19;20015;-67
2022/06/19 02:45:18;;;;;;;15.60;8.93;;;;;;;22.16;58.86;100325.03;7399950;19;20034;-66
2022/06/19 02:47:48;;;;;;;11.65;8.57;;;;;;;22.13;59.02;100310.94;7397830;19;20502;-67
2022/06/19 02:50:19;;;;;;;13.20;9.10;;;;;;;22.11;58.94;100309.34;7398071;19;20424;-67
2022/06/19 02:52:48;;;;;;;10.77;8.18;;;;;;;22.09;59.21;100301.47;7401073;19;20023;-67
2022/06/19 02:55:19;;;;;;;11.27;8.45;;;;;;;22.07;58.83;100305.22;7400194;19;20018;-67
2022/06/19 02:57:51;;;;;;;10.57;8.68;;;;;;;22.06;58.87;100300.84;7397725;19;20485;-67
2022/06/19 03:00:22;;;;;;;12.40;9.18;;;;;;;22.06;59.55;100293.66;7399574;19;20392;-67
2022/06/19 03:02:52;;;;;;;13.25;8.48;;;;;;;22.02;59.20;100284.19;7400907;19;20035;-67
2022/06/19 03:05:23;;;;;;;12.20;8.98;;;;;;;22.01;59.23;100281.66;7401464;19;20022;-67
2022/06/19 03:07:52;;;;;;;10.10;7.95;;;;;;;21.97;59.37;100281.88;7399070;19;20010;-67
2022/06/19 03:10:20;;;;;;;10.15;9.10;;;;;;;21.97;59.70;100281.03;7397394;19;20022;-67
2022/06/19 03:12:58;;;;;;;12.35;8.95;;;;;;;21.94;59.84;100270.59;7400650;19;20018;-67
2022/06/19 03:15:27;;;;;;;10.30;7.97;;;;;;;21.93;59.56;100266.22;7398042;19;20032;-66
2022/06/19 03:17:56;;;;;;;9.32;8.35;;;;;;;21.92;59.41;100268.03;7397488;19;20028;-67
2022/06/19 03:20:26;;;;;;;10.55;8.57;;;;;;;21.91;59.88;100269.03;7398201;19;20391;-67
2022/06/19 03:22:56;;;;;;;11.98;9.10;;;;;;;21.91;59.67;100262.81;7400047;19;20014;-67
2022/06/19 03:25:24;;;;;;;10.27;8.38;;;;;;;21.89;59.92;100257.59;7397421;19;20035;-67
2022/06/19 03:27:53;;;;;;;11.60;8.23;;;;;;;21.88;59.70;100255.88;7396410;19;20415;-66
2022/06/19 03:30:24;;;;;;;11.32;8.10;;;;;;;21.87;60.19;100250.66;7395192;19;20014;-67
2022/06/19 03:32:54;;;;;;;11.18;8.48;;;;;;;21.86;59.97;100249.81;7397361;19;20018;-67
2022/06/19 03:35:22;;;;;;;13.15;8.50;;;;;;;21.85;60.01;100244.59;7398928;19;20014;-67
2022/06/19 03:37:51;;;;;;;8.65;7.75;;;;;;;21.84;59.91;100241.09;7396850;19;20026;-67
2022/06/19 03:40:19;;;;;;;14.35;8.77;;;;;;;21.85;60.32;100241.91;7396465;19;20035;-67
2022/06/19 03:42:48;;;;;;;15.90;9.23;;;;;;;21.85;60.13;100240.13;7396584;19;20014;-67
2022/06/19 03:45:16;;;;;;;13.10;9.18;;;;;;;21.85;60.03;100239.25;7396690;19;20019;-65
2022/06/19 03:47:47;;;;;;;15.75;10.13;;;;;;;21.85;60.25;100234.78;7398545;19;20010;-66
2022/06/19 03:50:19;;;;;;;12.77;8.73;;;;;;;21.85;60.07;100225.91;7396764;19;20481;-66
2022/06/19 03:52:47;;;;;;;12.20;8.48;;;;;;;21.86;59.92;100239.13;7398981;19;20029;-66
2022/06/19 03:55:16;;;;;;;10.63;8.13;;;;;;;21.87;59.69;100232.81;7398383;19;20011;-66
2022/06/19 03:57:45;;;;;;;10.32;8.75;;;;;;;21.87;59.65;100227.47;7396381;19;20022;-66
2022/06/19 04:00:16;;;;;;;12.25;9.63;;;;;;;21.87;59.98;100224.81;7395684;19;20022;-66
2022/06/19 04:02:47;;;;;;;10.77;8.43;;;;;;;21.88;60.07;100223.00;7395906;19;20011;-66
2022/06/19 04:05:18;;;;;;;11.80;8.38;;;;;;;21.89;59.72;100224.72;7398193;19;20077;-66
2022/06/19 04:07:49;;;;;;;12.27;8.20;;;;;;;21.89;59.78;100225.56;7397632;19;20493;-66
2022/06/19 04:10:19;;;;;;;10.50;8.45;;;;;;;21.91;59.57;100226.28;7396304;19;20425;-66
2022/06/19 04:12:48;;;;;;;10.50;8.55;;;;;;;21.92;59.65;100227.13;7398131;19;20031;-66
2022/06/19 04:15:17;;;;;;;13.63;9.23;;;;;;;21.95;59.70;100225.06;7395736;19;20022;-66
2022/06/19 04:17:48;;;;;;;15.93;9.02;;;;;;;21.97;59.24;100224.94;7395687;19;20026;-66
2022/06/19 04:20:17;;;;;;;15.57;9.52;;;;;;;21.99;59.38;100232.84;7395604;19;20018;-65
2022/06/19 04:22:45;;;;;;;15.85;11.07;;;;;;;22.01;59.36;100233.56;7396977;19;20091;-66
2022/06/19 04:25:16;;;;;;;19.83;13.30;;;;;;;22.02;58.93;100227.28;7395397;19;20035;-66
2022/06/19 04:27:45;;;;;;;12.63;9.38;;;;;;;22.03;58.67;100216.47;7395207;19;20027;-66
2022/06/19 04:30:15;;;;;;;16.27;8.63;;;;;;;22.05;58.54;100211.00;7394414;19;20454;-66
2022/06/19 04:32:43;;;;;;;16.83;9.00;;;;;;;22.06;58.50;100205.53;7397099;19;20036;-66
2022/06/19 04:35:15;;;;;;;15.43;8.02;;;;;;;22.09;58.01;100205.28;7396514;19;20541;-66
2022/06/19 04:37:43;;;;;;;13.07;8.45;;;;;;;22.11;58.11;100199.81;7397233;19;20022;-66
2022/06/19 04:40:13;;;;;;;13.98;8.40;;;;;;;22.15;57.73;100203.09;7394643;19;20050;-66
2022/06/19 04:42:42;;;;;;;12.15;7.30;;;;;;;22.18;57.88;100209.06;7396352;19;20015;-66
2022/06/19 04:45:11;;;;;;;12.77;7.38;;;;;;;22.21;57.70;100192.78;7394409;19;20078;-66
2022/06/19 04:47:40;;;;;;;15.63;7.82;;;;;;;22.24;57.41;100199.69;7396621;19;20025;-66
2022/06/19 04:50:10;;;;;;;9.88;7.78;;;;;;;22.27;57.17;100194.97;7394599;19;20022;-66
2022/06/19 04:52:41;;;;;;;14.38;8.00;;;;;;;22.32;57.36;100193.72;7396234;19;20027;-67
2022/06/19 04:55:12;;;;;;;14.68;7.60;;;;;;;22.35;56.63;100190.84;7396082;19;20017;-67
2022/06/19 04:57:48;;;;;;;16.33;7.25;;;;;;;22.41;56.41;100193.06;7394229;19;20010;-67
2022/06/19 05:00:20;;;;;;;12.38;6.75;;;;;;;22.47;56.49;100189.88;7395651;19;20018;-66
2022/06/19 05:02:52;;;;;;;15.40;8.05;;;;;;;22.52;56.14;100181.47;7395783;19;20517;-66
2022/06/19 05:05:23;;;;;;;16.45;7.05;;;;;;;22.58;56.05;100171.16;7394758;19;20087;-66
2022/06/19 05:07:54;;;;;;;15.68;6.30;;;;;;;22.66;55.88;100173.19;7396484;19;20018;-66
2022/06/19 05:10:22;;;;;;;16.15;9.10;;;;;;;22.74;55.21;100173.41;7394548;19;20022;-66
2022/06/19 05:13:18;;;;;;;16.38;10.10;;;;;;;22.82;54.99;100174.59;7395580;19;20043;-66
2022/06/19 05:15:46;;;;;;;15.68;9.07;;;;;;;22.88;54.77;100177.59;7395269;19;20399;-66
2022/06/19 05:18:15;;;;;;;16.08;7.13;;;;;;;22.97;54.11;100175.16;7395368;19;20018;-66
2022/06/19 05:20:44;;;;;;;16.98;7.32;;;;;;;23.05;53.75;100180.72;7394297;19;20015;-66
2022/06/19 05:23:15;;;;;;;15.90;6.53;;;;;;;23.13;53.28;100169.34;7393502;19;20018;-66
2022/06/19 05:25:44;;;;;;;14.05;5.43;;;;;;;23.20;53.06;100166.09;7393613;19;20095;-66
2022/06/19 05:28:25;;;;;;;14.55;6.53;;;;;;;23.28;51.96;100162.78;7394471;19;20027;-66
2022/06/19 05:30:54;;;;;;;17.30;5.35;;;;;;;23.37;51.88;100166.50;7393572;19;20014;-66
2022/06/19 05:33:22;;;;;;;12.93;5.38;;;;;;;23.46;51.84;100156.84;7393040;19;20024;-66
2022/06/19 05:35:51;;;;;;;12.90;5.95;;;;;;;23.54;51.01;100157.88;7395116;19;20022;-66
2022/06/19 05:38:22;;;;;;;10.38;5.85;;;;;;;23.63;51.14;100158.88;7395023;19;20014;-66
2022/06/19 05:40:52;;;;;;;15.63;6.35;;;;;;;23.70;50.78;100152.03;7394095;19;20074;-67
2022/06/19 05:43:21;;;;;;;15.02;5.75;;;;;;;23.78;50.71;100154.03;7394989;19;20086;-66
2022/06/19 05:45:54;;;;;;;8.30;4.75;;;;;;;23.87;50.40;100145.22;7392973;19;20024;-66
2022/06/19 05:48:23;;;;;;;16.02;6.43;;;;;;;23.96;49.96;100138.25;7393454;19;20078;-67
2022/06/19 05:50:59;;;;;;;12.88;4.93;;;;;;;24.06;49.69;100132.88;7393098;19;20422;-67
2022/06/19 05:53:33;;;;;;;14.68;6.35;;;;;;;24.13;49.17;100134.06;7397916;19;20035;-66
2022/06/19 05:56:03;;;;;;;11.85;4.72;;;;;;;24.21;49.24;100126.19;7402705;19;20477;-66
2022/06/19 05:58:32;;;;;;;19.08;5.82;;;;;;;24.30;48.52;100108.44;7400500;19;20046;-66
2022/06/19 06:01:02;;;;;;;14.85;5.03;;;;;;;24.40;48.73;100108.44;7399718;19;20506;-67
2022/06/19 06:03:31;;;;;;;12.35;5.22;;;;;;;24.49;47.97;100104.06;7402279;19;20024;-66
2022/06/19 06:06:01;;;;;;;9.35;4.28;;;;;;;24.58;47.75;100099.72;7398797;19;20490;-66
2022/06/19 06:08:33;;;;;;;11.18;4.47;;;;;;;24.66;47.61;100100.72;7402372;19;20035;-66
2022/06/19 06:11:01;;;;;;;12.40;4.60;;;;;;;24.75;47.77;100091.00;7398649;19;20423;-66
2022/06/19 06:13:30;;;;;;;9.98;3.80;;;;;;;24.84;47.20;100084.78;7398959;19;20074;-66
2022/06/19 06:16:01;;;;;;;11.00;4.32;;;;;;;24.94;46.94;100083.94;7401694;19;20021;-66
2022/06/19 06:18:30;;;;;;;13.15;4.00;;;;;;;25.02;46.61;100070.63;7401507;19;20022;-66
2022/06/19 06:21:00;;;;;;;11.52;4.22;;;;;;;25.13;46.43;100075.84;7398909;19;20367;-67
2022/06/19 06:23:30;;;;;;;10.40;3.65;;;;;;;25.22;45.99;100071.44;7401671;19;20083;-67
2022/06/19 06:26:08;;;;;;;10.27;3.95;;;;;;;25.33;44.80;100070.44;7400970;19;20022;-67
2022/06/19 06:28:38;;;;;;;14.48;3.60;;;;;;;25.43;45.38;100068.59;7399696;19;20023;-66
2022/06/19 06:31:07;;;;;;;9.60;3.70;;;;;;;25.53;44.45;100060.50;7398272;19;20558;-66
2022/06/19 06:33:36;;;;;;;9.10;4.07;;;;;;;25.63;44.22;100050.56;7397961;19;20018;-67
2022/06/19 06:36:05;;;;;;;8.95;3.53;;;;;;;25.75;44.41;100050.38;7397845;19;20022;-67
2022/06/19 06:38:34;;;;;;;9.60;3.50;;;;;;;25.85;43.82;100041.25;7397719;19;20355;-67
2022/06/19 06:41:07;;;;;;;9.90;3.75;;;;;;;25.96;43.93;100044.75;7397250;19;20082;-67
2022/06/19 06:43:38;;;;;;;11.43;3.60;;;;;;;26.06;43.65;100045.56;7398193;19;20037;-67
2022/06/19 06:46:07;;;;;;;11.55;3.35;;;;;;;26.20;43.67;100051.41;7397364;19;20022;-67
2022/06/19 06:48:36;;;;;;;9.50;3.40;;;;;;;26.30;43.62;100047.66;7397594;19;20493;-67
2022/06/19 06:51:07;;;;;;;10.20;3.78;;;;;;;26.41;42.38;100045.75;7398165;19;20035;-66
2022/06/19 06:53:36;;;;;;;8.05;3.50;;;;;;;26.53;42.14;100039.13;7400469;19;20018;-67
2022/06/19 06:56:08;;;;;;;11.48;3.60;;;;;;;26.63;41.70;100044.44;7400246;19;20018;-66
2022/06/19 06:58:38;;;;;;;9.05;3.47;;;;;;;26.73;41.78;100050.63;7400552;19;20025;-67
2022/06/19 07:01:13;;;;;;;11.60;3.80;;;;;;;26.84;41.92;100046.81;7397937;19;20086;-67
2022/06/19 07:03:41;;;;;;;10.10;3.92;;;;;;;26.94;41.80;100035.97;7397153;19;20027;-67
2022/06/19 07:06:10;;;;;;;9.70;3.30;;;;;;;27.05;41.27;100033.00;7397650;19;20035;-67
2022/06/19 07:08:39;;;;;;;12.48;3.70;;;;;;;27.15;40.61;100035.59;7398053;19;20014;-67
2022/06/19 07:11:16;;;;;;;10.70;3.58;;;;;;;27.25;40.29;100033.63;7396627;19;20018;-67
2022/06/19 07:13:45;;;;;;;8.05;3.42;;;;;;;27.37;39.88;100022.59;7397694;19;20022;-68
2022/06/19 07:16:14;;;;;;;14.85;3.40;;;;;;;27.48;40.22;100015.09;7397341;19;20010;-67
2022/06/19 07:18:42;;;;;;;10.65;4.43;;;;;;;27.59;39.72;100023.91;7397333;19;20015;-67
2022/06/19 07:21:11;;;;;;;12.10;3.80;;;;;;;27.69;39.11;100023.78;7396631;19;20502;-67
2022/06/19 07:23:40;;;;;;;8.52;3.28;;;;;;;27.81;39.47;100022.47;7399021;19;20014;-67
2022/06/19 07:26:14;;;;;;;9.02;3.33;;;;;;;27.92;38.14;100008.69;7396981;19;20078;-67
2022/06/19 07:28:43;;;;;;;10.23;3.13;;;;;;;28.04;38.71;100011.09;7396432;19;20019;-67
2022/06/19 07:31:13;;;;;;;10.77;3.60;;;;;;;28.14;38.30;100014.50;7397265;19;20035;-69
2022/06/19 07:33:42;;;;;;;11.80;4.00;;;;;;;28.24;38.37;100006.25;7398822;19;20021;-67
2022/06/19 07:36:17;;;;;;;9.90;3.70;;;;;;;28.36;37.75;99999.53;7399050;19;20078;-67
2022/06/19 07:38:46;;;;;;;11.57;3.55;;;;;;;28.47;37.93;99998.34;7399374;19;20022;-67
2022/06/19 07:41:17;;;;;;;11.27;3.65;;;;;;;28.58;37.56;99999.88;7397203;19;20037;-67
2022/06/19 07:43:46;;;;;;;11.40;2.75;;;;;;;28.69;37.49;99991.47;7399123;19;20078;-67
2022/06/19 07:46:15;;;;;;;8.60;3.97;;;;;;;28.80;37.34;99990.25;7396277;19;20382;-67
2022/06/19 07:51:25;;;;;;;13.18;3.95;;;;;;;29.00;37.22;99981.78;7395902;19;20018;-67
2022/06/19 07:53:53;;;;;;;11.15;3.30;;;;;;;29.11;36.58;99983.31;7398752;19;20015;-67
2022/06/19 07:56:24;;;;;;;13.70;3.55;;;;;;;29.20;36.20;99996.59;7398071;19;20018;-67
2022/06/19 07:58:53;;;;;;;9.32;4.32;;;;;;;29.31;36.01;100003.50;7395733;19;20510;-67
2022/06/19 08:01:21;;;;;;;14.25;3.50;;;;;;;29.42;35.58;99999.56;7395935;19;20035;-67
2022/06/19 08:03:50;;;;;;;12.43;3.03;;;;;;;29.51;35.56;100011.19;7396108;19;20018;-67
2022/06/19 08:06:19;;;;;;;9.90;3.47;;;;;;;29.57;35.37;99997.00;7395434;19;20031;-67
2022/06/19 08:08:48;;;;;;;14.07;3.08;;;;;;;29.66;34.96;99989.69;7397928;19;20024;-67
2022/06/19 08:11:17;;;;;;;14.73;3.45;;;;;;;29.74;34.98;100003.16;7395901;19;20039;-68
2022/06/19 08:13:48;;;;;;;12.65;3.78;;;;;;;29.82;34.96;99991.47;7398238;19;20022;-67
2022/06/19 08:16:16;;;;;;;13.60;3.40;;;;;;;29.88;34.75;99985.34;7397429;19;20074;-67
2022/06/19 08:18:45;;;;;;;9.20;3.67;;;;;;;29.96;34.54;99979.91;7395730;19;20039;-67
2022/06/19 08:21:14;;;;;;;10.77;2.72;;;;;;;30.04;34.43;99987.97;7395375;19;20409;-67
2022/06/19 08:23:42;;;;;;;7.55;2.95;;;;;;;30.18;34.01;99993.63;7397294;19;20039;-67
2022/06/19 08:26:11;;;;;;;11.88;2.90;;;;;;;30.27;33.42;99995.25;7396312;19;20536;-67
2022/06/19 08:28:43;;;;;;;7.78;2.67;;;;;;;30.36;33.34;99991.47;7395307;19;20039;-67
2022/06/19 08:31:14;;;;;;;8.73;3.10;;;;;;;30.46;32.74;99985.81;7395713;19;20042;-67
2022/06/19 08:33:43;;;;;;;9.95;3.13;;;;;;;30.54;32.76;99974.09;7397471;19;20022;-67
2022/06/19 08:36:14;;;;;;;8.18;2.83;;;;;;;30.62;32.52;99976.75;7396399;19;20078;-67
2022/06/19 08:38:47;;;;;;;10.90;3.67;;;;;;;30.71;32.55;99972.09;7396532;19;20485;-67
2022/06/19 08:41:33;;;;;;;9.57;2.45;;;;;;;30.79;31.28;99969.28;7395072;19;20022;-67
2022/06/19 08:44:23;;;;;;;9.30;3.08;;;;;;;30.87;30.61;99958.41;7397181;19;20031;-67
2022/06/19 08:47:09;;;;;;;14.90;3.85;;;;;;;30.96;30.50;99947.47;7394800;19;20018;-67
2022/06/19 08:49:51;;;;;;;8.82;3.20;;;;;;;31.04;29.80;99948.22;7396838;19;20395;-67
2022/06/19 08:52:29;;;;;;;17.17;3.33;;;;;;;31.11;29.65;99953.75;7395866;19;20018;-66
2022/06/19 08:55:09;;;;;;;10.55;2.88;;;;;;;31.19;29.33;99955.50;7396856;19;20014;-67
2022/06/19 08:57:49;;;;;;;10.40;2.95;;;;;;;31.24;29.64;99950.38;7394924;19;20392;-66
2022/06/19 09:00:22;;;;;;;15.07;4.20;;;;;;;31.33;29.45;99951.13;7396210;19;20031;-67
2022/06/19 09:03:08;;;;;;;14.25;3.13;;;;;;;31.41;29.24;99961.03;7394639;19;20014;-67
2022/06/19 09:05:47;;;;;;;14.02;3.10;;;;;;;31.48;28.90;99962.78;7396440;19;20554;-67
2022/06/19 09:08:39;;;;;;;10.95;2.90;;;;;;;31.56;28.60;99959.13;7394611;19;20078;-67
2022/06/19 09:11:29;;;;;;;17.40;3.75;;;;;;;31.61;28.30;99953.97;7394513;19;20360;-67
2022/06/19 09:14:22;;;;;;;14.05;3.55;;;;;;;31.69;28.04;99958.47;7396737;19;20018;-67
2022/06/19 09:16:59;;;;;;;12.13;3.35;;;;;;;31.78;28.22;99934.78;7396057;19;20010;-67
2022/06/19 09:19:39;;;;;;;13.80;3.45;;;;;;;31.83;28.48;99929.63;7395773;19;20018;-66
2022/06/19 09:22:18;;;;;;;9.50;2.67;;;;;;;31.89;28.15;99915.28;7395009;19;20018;-67
2022/06/19 09:25:04;;;;;;;9.70;2.88;;;;;;;31.97;28.06;99928.75;7395464;19;20508;-66
2022/06/19 09:27:38;;;;;;;8.65;2.85;;;;;;;32.07;27.86;99928.38;7393845;19;20010;-67
2022/06/19 09:30:13;;;;;;;15.65;3.47;;;;;;;32.13;27.81;99932.22;7392617;19;20506;-67
2022/06/19 09:32:48;;;;;;;13.18;3.80;;;;;;;32.21;27.49;99932.09;7394848;19;20042;-67
2022/06/19 09:35:24;;;;;;;16.63;3.33;;;;;;;32.26;28.04;99920.66;7395028;19;20505;-67
2022/06/19 09:37:58;;;;;;;15.23;3.22;;;;;;;32.32;27.44;99931.56;7395395;19;20079;-67
2022/06/19 09:40:32;;;;;;;15.85;3.45;;;;;;;32.40;27.09;99918.91;7393602;19;20014;-67
2022/06/19 09:43:08;;;;;;;19.42;3.80;;;;;;;32.45;26.40;99902.84;7394506;19;20031;-68
2022/06/19 09:45:40;;;;;;;14.48;3.58;;;;;;;32.51;26.43;99907.50;7395224;19;20384;-66
2022/06/19 09:48:19;;;;;;;15.45;3.58;;;;;;;32.57;26.60;99901.28;7394322;19;20082;-67
2022/06/19 09:50:55;;;;;;;18.60;4.45;;;;;;;32.64;26.32;99899.44;7393204;19;20458;-66
2022/06/19 09:53:32;;;;;;;19.20;3.45;;;;;;;32.73;26.35;99883.84;7393286;19;20019;-66
2022/06/19 09:56:08;;;;;;;18.08;3.78;;;;;;;32.78;26.17;99881.41;7393580;19;20019;-66
2022/06/19 09:58:43;;;;;;;12.45;3.20;;;;;;;32.85;26.16;99873.28;7394552;19;20018;-66
2022/06/19 10:01:12;;;;;;;18.15;4.05;;;;;;;32.91;26.23;99877.91;7392555;19;20031;-66
2022/06/19 10:03:44;;;;;;;12.60;3.20;;;;;;;32.97;25.61;99868.94;7394045;19;20010;-67
2022/06/19 10:06:21;;;;;;;16.30;3.83;;;;;;;33.07;25.27;99873.16;7394893;19;20077;-66
2022/06/19 10:08:54;;;;;;;16.35;3.15;;;;;;;33.16;25.51;99881.97;7394695;19;20429;-67
2022/06/19 10:11:27;;;;;;;15.18;3.40;;;;;;;33.23;24.76;99870.09;7392449;19;20027;-66
2022/06/19 10:13:58;;;;;;;;;;;;;;;33.32;24.17;99859.09;7395049;19;20011;-66
2022/06/19 10:16:31;;;;;;;10.70;3.47;;;;;;;33.40;25.33;99856.16;7391985;19;19978;-70
2022/06/19 10:19:03;;;;;;;20.88;4.57;;;;;;;33.56;23.88;99872.09;7394595;19;20039;-69
2022/06/19 10:24:34;;;;;;;14.18;3.70;;;;;;;33.78;23.55;99878.22;7393527;19;20011;-66
2022/06/19 10:27:11;;;;;;;14.30;3.67;;;;;;;33.86;24.00;99870.94;7390498;19;20019;-67
2022/06/19 10:29:52;;;;;;;21.95;4.47;;;;;;;33.93;23.71;99867.16;7391108;19;20019;-70
2022/06/19 10:32:47;;;;;;;19.40;3.75;;;;;;;34.02;23.24;99875.97;7390964;19;20082;-68
2022/06/19 10:35:21;;;;;;;16.52;4.38;;;;;;;34.08;23.39;99863.41;7392604;19;20022;-68
2022/06/19 10:38:06;;;;;;;21.80;4.45;;;;;;;34.14;23.21;99868.00;7393340;19;20022;-67
2022/06/19 10:40:45;;;;;;;16.98;3.85;;;;;;;34.18;22.84;99868.41;7397331;19;20035;-68
2022/06/19 10:43:31;;;;;;;22.35;4.35;;;;;;;34.24;23.39;99875.75;7398246;19;20018;-68
2022/06/19 10:46:04;;;;;;;21.48;3.28;;;;;;;34.30;22.96;99860.44;7400111;19;20086;-69
2022/06/19 10:48:42;;;;;;;16.10;4.72;;;;;;;34.39;23.26;99857.34;7401001;19;20035;-68
2022/06/19 10:51:41;;;;;;;14.65;3.85;;;;;;;34.50;22.36;99855.00;7398139;19;20022;-68
2022/06/19 10:54:27;;;;;;;16.65;3.78;;;;;;;34.57;22.96;99843.03;7401385;19;20026;-67
2022/06/19 10:57:10;;;;;;;17.52;3.67;;;;;;;34.64;22.59;99840.31;7400594;19;20028;-68
2022/06/19 10:59:39;;;;;;;16.45;4.03;;;;;;;34.69;22.75;99826.03;7401236;19;20492;-68
2022/06/19 11:05:06;;;;;;;16.92;3.63;;;;;;;34.84;22.76;99823.91;7399916;19;20011;-67
2022/06/19 11:07:34;;;;;;;12.10;3.58;;;;;;;34.91;22.17;99819.28;7397607;19;20087;-67
2022/06/19 11:10:11;;;;;;;14.23;4.20;;;;;;;35.01;22.53;99827.00;7396862;19;20022;-67
2022/06/19 11:12:44;;;;;;;17.05;3.60;;;;;;;35.08;22.66;99821.50;7397402;19;20019;-68
2022/06/19 11:15:28;;;;;;;15.68;3.30;;;;;;;35.19;22.49;99826.28;7397184;19;20430;-68
2022/06/19 11:18:13;;;;;;;12.07;3.15;;;;;;;35.31;22.15;99807.34;7399582;19;20026;-68
2022/06/19 11:20:45;;;;;;;15.30;3.83;;;;;;;35.41;22.10;99808.78;7397494;19;20030;-68
2022/06/19 11:23:26;;;;;;;14.50;3.72;;;;;;;35.47;21.86;99808.72;7399442;19;20027;-68
2022/06/19 11:26:06;;;;;;;25.45;4.00;;;;;;;35.53;21.60;99805.13;7396046;19;20084;-67
2022/06/19 11:28:47;;;;;;;15.98;3.80;;;;;;;35.57;21.74;99799.25;7398617;19;20014;-68
2022/06/19 11:31:19;;;;;;;20.15;3.75;;;;;;;35.65;21.64;99785.31;7396750;19;20014;-67
2022/06/19 11:33:50;;;;;;;15.27;3.17;;;;;;;35.75;21.79;99791.09;7399553;19;20015;-67
2022/06/19 11:36:33;;;;;;;13.43;3.50;;;;;;;35.82;21.19;99791.88;7399083;19;20022;-67
2022/06/19 11:39:04;;;;;;;14.75;3.58;;;;;;;35.96;21.52;99794.53;7398575;19;20022;-67
2022/06/19 11:41:38;;;;;;;25.02;4.47;;;;;;;36.11;20.78;99800.47;7396183;19;20074;-65
2022/06/19 11:44:16;;;;;;;15.82;4.68;;;;;;;36.28;21.27;99797.97;7396460;19;20031;-66
2022/06/19 11:46:50;;;;;;;17.77;4.22;;;;;;;36.47;20.77;99817.97;7398244;19;20078;-66
2022/06/19 11:49:25;;;;;;;15.48;4.13;;;;;;;36.63;20.44;99813.00;7397041;19;20007;-66
2022/06/19 11:51:55;;;;;;;16.85;3.55;;;;;;;36.75;20.21;99808.44;7393779;19;20035;-66
2022/06/19 11:54:29;;;;;;;12.77;4.28;;;;;;;36.78;20.39;99804.41;7397352;19;20018;-67